createdAt,value
2023-02-26T00:00:53.811Z,86.82
2023-02-26T00:01:53.810Z,86.82
2023-02-26T00:02:53.784Z,86.72
2023-02-26T00:03:53.741Z,86.68
2023-02-26T00:04:53.750Z,86.68
2023-02-26T00:05:53.722Z,86.68
2023-02-26T00:06:54.149Z,86.57
2023-02-26T00:07:53.699Z,86.47
2023-02-26T00:08:53.690Z,86.57
2023-02-26T00:09:53.671Z,86.57
2023-02-26T00:10:53.668Z,86.47
2023-02-26T00:11:53.659Z,86.37
2023-02-26T00:12:53.666Z,86.26
2023-02-26T00:13:53.631Z,86.26
2023-02-26T00:14:53.627Z,86.26
2023-02-26T00:15:53.611Z,86.16
2023-02-26T00:16:53.636Z,86.16
2023-02-26T00:17:53.588Z,86.05
2023-02-26T00:18:53.568Z,85.84
2023-02-26T00:19:53.565Z,85.84
2023-02-26T00:20:53.554Z,85.74
2023-02-26T00:21:53.539Z,85.78
2023-02-26T00:22:53.534Z,85.78
2023-02-26T00:23:53.539Z,85.78
2023-02-26T00:24:53.506Z,85.78
2023-02-26T00:25:53.507Z,85.78
2023-02-26T00:26:53.494Z,85.68
2023-02-26T00:27:53.468Z,85.78
2023-02-26T00:28:53.463Z,85.78
2023-02-26T00:29:53.455Z,85.88
2023-02-26T00:30:53.499Z,85.88
2023-02-26T00:31:53.550Z,85.88
2023-02-26T00:32:53.442Z,85.99
2023-02-26T00:33:53.412Z,85.99
2023-02-26T00:34:53.396Z,85.99
2023-02-26T00:35:53.389Z,85.99
2023-02-26T00:36:53.367Z,85.88
2023-02-26T00:37:53.357Z,85.88
2023-02-26T00:38:53.347Z,85.78
2023-02-26T00:39:53.349Z,85.78
2023-02-26T00:40:53.340Z,85.78
2023-02-26T00:41:53.316Z,85.74
2023-02-26T00:42:53.312Z,85.74
2023-02-26T00:43:53.296Z,85.63
2023-02-26T00:44:53.278Z,85.63
2023-02-26T00:45:53.352Z,85.53
2023-02-26T00:46:53.256Z,85.57
2023-02-26T00:47:53.252Z,85.57
2023-02-26T00:48:53.276Z,85.53
2023-02-26T00:49:53.231Z,85.53
2023-02-26T00:50:53.211Z,85.57
2023-02-26T00:51:53.200Z,85.63
2023-02-26T00:52:53.191Z,85.53
2023-02-26T00:53:53.185Z,85.53
2023-02-26T00:54:53.167Z,85.43
2023-02-26T00:55:53.160Z,85.43
2023-02-26T00:56:53.150Z,85.32
2023-02-26T00:57:53.139Z,85.32
2023-02-26T00:58:53.137Z,85.22
2023-02-26T00:59:53.109Z,85.08
2023-02-26T01:00:53.107Z,84.97
2023-02-26T01:01:53.120Z,84.76
2023-02-26T01:02:53.081Z,84.66
2023-02-26T01:03:53.147Z,84.49
2023-02-26T01:04:53.089Z,84.38
2023-02-26T01:05:53.052Z,84.38
2023-02-26T01:06:53.031Z,84.60
2023-02-26T01:07:53.024Z,84.70
2023-02-26T01:08:53.013Z,84.84
2023-02-26T01:09:53.000Z,85.01
2023-02-26T01:10:52.983Z,85.01
2023-02-26T01:11:52.988Z,85.01
2023-02-26T01:12:52.963Z,85.01
2023-02-26T01:13:52.956Z,84.91
2023-02-26T01:14:52.949Z,84.80
2023-02-26T01:15:53.061Z,84.70
2023-02-26T01:16:52.933Z,84.70
2023-02-26T01:17:52.913Z,84.70
2023-02-26T01:18:52.903Z,84.70
2023-02-26T01:19:52.881Z,84.60
2023-02-26T01:20:52.901Z,84.60
2023-02-26T01:21:52.868Z,84.60
2023-02-26T01:22:52.851Z,84.49
2023-02-26T01:23:52.844Z,84.35
2023-02-26T01:24:52.824Z,84.35
2023-02-26T01:25:52.815Z,84.14
2023-02-26T01:26:52.816Z,83.86
2023-02-26T01:27:52.812Z,83.97
2023-02-26T01:28:52.786Z,84.22
2023-02-26T01:29:52.775Z,84.32
2023-02-26T01:30:52.866Z,84.38
2023-02-26T01:31:52.934Z,84.49
2023-02-26T01:32:52.733Z,84.60
2023-02-26T01:33:52.725Z,84.49
2023-02-26T01:34:52.723Z,84.38
2023-02-26T01:35:52.702Z,84.28
2023-02-26T01:36:52.722Z,84.28
2023-02-26T01:37:52.692Z,84.28
2023-02-26T01:38:52.670Z,84.28
2023-02-26T01:39:52.666Z,84.17
2023-02-26T01:40:52.648Z,83.97
2023-02-26T01:41:52.649Z,83.86
2023-02-26T01:42:52.636Z,83.86
2023-02-26T01:43:52.625Z,83.86
2023-02-26T01:44:52.617Z,83.97
2023-02-26T01:45:52.601Z,83.97
2023-02-26T01:46:52.646Z,83.97
2023-02-26T01:47:52.589Z,83.97
2023-02-26T01:48:52.568Z,83.97
2023-02-26T01:49:52.558Z,83.86
2023-02-26T01:50:52.538Z,83.76
2023-02-26T01:51:52.527Z,83.66
2023-02-26T01:52:52.555Z,83.66
2023-02-26T01:53:52.515Z,83.66
2023-02-26T01:54:52.500Z,83.66
2023-02-26T01:55:52.509Z,83.55
2023-02-26T01:56:52.480Z,83.45
2023-02-26T01:57:52.478Z,83.45
2023-02-26T01:58:52.449Z,83.45
2023-02-26T01:59:52.443Z,83.45
2023-02-26T02:00:52.435Z,83.45
2023-02-26T02:01:52.420Z,83.34
2023-02-26T02:02:52.557Z,83.24
2023-02-26T02:03:52.395Z,83.14
2023-02-26T02:04:52.401Z,83.03
2023-02-26T02:05:52.382Z,82.92
2023-02-26T02:06:52.370Z,82.82
2023-02-26T02:07:52.359Z,82.72
2023-02-26T02:08:52.373Z,82.72
2023-02-26T02:09:52.329Z,82.61
2023-02-26T02:10:52.322Z,82.82
2023-02-26T02:11:52.316Z,82.92
2023-02-26T02:12:52.295Z,82.92
2023-02-26T02:13:52.285Z,83.03
2023-02-26T02:14:52.274Z,82.92
2023-02-26T02:15:52.263Z,82.92
2023-02-26T02:16:52.251Z,82.82
2023-02-26T02:17:52.241Z,82.82
2023-02-26T02:18:52.228Z,82.61
2023-02-26T02:19:52.209Z,82.61
2023-02-26T02:20:52.198Z,82.72
2023-02-26T02:21:52.192Z,82.61
2023-02-26T02:22:52.183Z,82.61
2023-02-26T02:23:52.172Z,82.72
2023-02-26T02:24:52.182Z,82.82
2023-02-26T02:25:52.150Z,82.72
2023-02-26T02:26:52.148Z,82.82
2023-02-26T02:27:52.117Z,82.82
2023-02-26T02:28:52.116Z,82.82
2023-02-26T02:29:52.095Z,82.72
2023-02-26T02:30:52.116Z,82.61
2023-02-26T02:31:52.288Z,82.72
2023-02-26T02:32:52.153Z,82.51
2023-02-26T02:33:52.056Z,82.40
2023-02-26T02:34:52.048Z,82.40
2023-02-26T02:35:52.029Z,82.55
2023-02-26T02:36:52.126Z,82.61
2023-02-26T02:37:52.005Z,82.72
2023-02-26T02:38:52.009Z,82.82
2023-02-26T02:39:52.022Z,82.92
2023-02-26T02:40:52.002Z,82.82
2023-02-26T02:41:51.962Z,82.82
2023-02-26T02:42:51.963Z,82.82
2023-02-26T02:43:51.946Z,82.72
2023-02-26T02:44:51.961Z,82.61
2023-02-26T02:45:52.008Z,82.51
2023-02-26T02:46:51.986Z,82.51
2023-02-26T02:47:51.901Z,82.40
2023-02-26T02:48:51.885Z,82.40
2023-02-26T02:49:51.879Z,82.40
2023-02-26T02:50:51.863Z,82.40
2023-02-26T02:51:51.852Z,82.37
2023-02-26T02:52:51.847Z,82.26
2023-02-26T02:53:51.840Z,82.16
2023-02-26T02:54:51.819Z,81.99
2023-02-26T02:55:51.824Z,81.89
2023-02-26T02:56:51.824Z,81.89
2023-02-26T02:57:51.791Z,81.99
2023-02-26T02:58:51.777Z,82.09
2023-02-26T02:59:51.768Z,82.09
2023-02-26T03:00:51.789Z,82.09
2023-02-26T03:01:51.738Z,82.09
2023-02-26T03:02:51.772Z,82.20
2023-02-26T03:03:51.726Z,82.20
2023-02-26T03:04:51.706Z,82.09
2023-02-26T03:05:51.699Z,81.99
2023-02-26T03:06:51.713Z,81.99
2023-02-26T03:07:51.693Z,81.99
2023-02-26T03:08:51.694Z,82.09
2023-02-26T03:09:51.659Z,82.09
2023-02-26T03:10:51.646Z,82.09
2023-02-26T03:11:51.634Z,82.09
2023-02-26T03:12:51.644Z,82.09
2023-02-26T03:13:51.611Z,82.20
2023-02-26T03:14:51.602Z,82.16
2023-02-26T03:15:51.649Z,82.09
2023-02-26T03:16:51.650Z,82.09
2023-02-26T03:17:51.621Z,81.89
2023-02-26T03:18:51.564Z,81.89
2023-02-26T03:19:51.554Z,81.89
2023-02-26T03:20:51.540Z,81.89
2023-02-26T03:21:51.523Z,81.99
2023-02-26T03:22:51.504Z,82.09
2023-02-26T03:23:51.501Z,82.09
2023-02-26T03:24:51.486Z,82.06
2023-02-26T03:25:51.479Z,81.95
2023-02-26T03:26:51.467Z,81.75
2023-02-26T03:27:51.449Z,81.64
2023-02-26T03:28:51.517Z,81.64
2023-02-26T03:29:51.430Z,81.64
2023-02-26T03:30:51.449Z,81.64
2023-02-26T03:31:51.555Z,81.64
2023-02-26T03:32:51.400Z,81.75
2023-02-26T03:33:51.383Z,81.85
2023-02-26T03:34:51.384Z,81.85
2023-02-26T03:35:51.387Z,81.78
2023-02-26T03:36:51.349Z,81.89
2023-02-26T03:37:51.338Z,81.78
2023-02-26T03:38:51.338Z,81.89
2023-02-26T03:39:51.324Z,81.99
2023-02-26T03:40:51.308Z,81.99
2023-02-26T03:41:51.302Z,82.09
2023-02-26T03:42:51.292Z,82.09
2023-02-26T03:43:51.284Z,82.09
2023-02-26T03:44:51.284Z,82.20
2023-02-26T03:45:51.299Z,82.20
2023-02-26T03:46:51.245Z,82.34
2023-02-26T03:47:51.226Z,82.40
2023-02-26T03:48:51.287Z,82.40
2023-02-26T03:49:51.206Z,82.51
2023-02-26T03:50:51.193Z,82.51
2023-02-26T03:51:51.187Z,82.61
2023-02-26T03:52:51.187Z,82.61
2023-02-26T03:53:51.173Z,82.61
2023-02-26T03:54:51.162Z,82.65
2023-02-26T03:55:51.148Z,82.76
2023-02-26T03:56:51.130Z,82.82
2023-02-26T03:57:51.128Z,82.92
2023-02-26T03:58:51.104Z,82.92
2023-02-26T03:59:51.097Z,82.92
2023-02-26T04:00:51.111Z,82.72
2023-02-26T04:01:51.076Z,82.72
2023-02-26T04:02:51.077Z,82.82
2023-02-26T04:03:51.053Z,82.82
2023-02-26T04:04:51.039Z,82.82
2023-02-26T04:05:51.030Z,82.92
2023-02-26T04:06:51.012Z,82.92
2023-02-26T04:07:51.008Z,82.72
2023-02-26T04:08:50.994Z,82.61
2023-02-26T04:09:50.980Z,82.72
2023-02-26T04:10:50.978Z,82.92
2023-02-26T04:11:50.965Z,82.82
2023-02-26T04:12:50.962Z,82.72
2023-02-26T04:13:50.942Z,82.72
2023-02-26T04:14:50.935Z,82.82
2023-02-26T04:15:50.919Z,82.72
2023-02-26T04:16:50.954Z,82.61
2023-02-26T04:17:50.900Z,82.61
2023-02-26T04:18:50.888Z,82.51
2023-02-26T04:19:50.877Z,82.30
2023-02-26T04:20:50.860Z,82.09
2023-02-26T04:21:50.865Z,82.09
2023-02-26T04:22:50.846Z,82.09
2023-02-26T04:23:50.829Z,82.30
2023-02-26T04:24:50.827Z,82.30
2023-02-26T04:25:50.810Z,82.30
2023-02-26T04:26:50.804Z,82.30
2023-02-26T04:27:50.787Z,82.20
2023-02-26T04:28:50.770Z,82.30
2023-02-26T04:29:50.762Z,82.16
2023-02-26T04:30:50.895Z,82.06
2023-02-26T04:31:50.838Z,82.06
2023-02-26T04:32:50.771Z,82.06
2023-02-26T04:33:50.718Z,81.95
2023-02-26T04:34:50.706Z,81.85
2023-02-26T04:35:50.703Z,81.75
2023-02-26T04:36:50.680Z,81.64
2023-02-26T04:37:50.676Z,81.43
2023-02-26T04:38:50.664Z,81.43
2023-02-26T04:39:50.650Z,81.43
2023-02-26T04:40:50.633Z,81.22
2023-02-26T04:41:50.633Z,81.36
2023-02-26T04:42:50.622Z,81.36
2023-02-26T04:43:50.604Z,81.57
2023-02-26T04:44:50.592Z,81.68
2023-02-26T04:45:50.724Z,81.68
2023-02-26T04:46:50.583Z,81.57
2023-02-26T04:47:50.551Z,81.57
2023-02-26T04:48:50.574Z,81.68
2023-02-26T04:49:50.529Z,81.78
2023-02-26T04:50:50.516Z,81.78
2023-02-26T04:51:50.522Z,81.78
2023-02-26T04:52:50.495Z,81.68
2023-02-26T04:53:50.493Z,81.46
2023-02-26T04:54:50.476Z,81.26
2023-02-26T04:55:52.346Z,81.26
2023-02-26T04:56:50.458Z,81.36
2023-02-26T04:57:50.453Z,81.26
2023-02-26T04:58:50.432Z,81.05
2023-02-26T04:59:50.428Z,80.95
2023-02-26T05:00:50.410Z,80.84
2023-02-26T05:01:50.440Z,80.81
2023-02-26T05:02:50.391Z,80.81
2023-02-26T05:03:50.375Z,80.70
2023-02-26T05:04:50.450Z,80.60
2023-02-26T05:05:50.363Z,80.39
2023-02-26T05:06:50.349Z,80.29
2023-02-26T05:07:50.354Z,80.29
2023-02-26T05:08:50.316Z,80.08
2023-02-26T05:09:50.312Z,80.01
2023-02-26T05:10:50.294Z,80.12
2023-02-26T05:11:50.290Z,80.12
2023-02-26T05:12:50.278Z,80.22
2023-02-26T05:13:50.273Z,80.32
2023-02-26T05:14:50.251Z,80.32
2023-02-26T05:15:50.267Z,80.29
2023-02-26T05:16:50.236Z,80.18
2023-02-26T05:17:50.214Z,80.18
2023-02-26T05:18:50.219Z,80.08
2023-02-26T05:19:50.218Z,80.12
2023-02-26T05:20:50.206Z,80.22
2023-02-26T05:21:50.189Z,80.29
2023-02-26T05:22:50.158Z,80.29
2023-02-26T05:23:50.163Z,80.08
2023-02-26T05:24:50.147Z,79.87
2023-02-26T05:25:50.145Z,79.66
2023-02-26T05:26:50.128Z,79.45
2023-02-26T05:27:50.149Z,79.35
2023-02-26T05:28:50.102Z,79.35
2023-02-26T05:29:50.089Z,79.21
2023-02-26T05:30:50.159Z,79.21
2023-02-26T05:31:50.231Z,79.10
2023-02-26T05:32:50.050Z,78.90
2023-02-26T05:33:50.050Z,79.00
2023-02-26T05:34:50.049Z,78.90
2023-02-26T05:35:50.026Z,78.79
2023-02-26T05:36:50.025Z,78.83
2023-02-26T05:37:49.991Z,78.72
2023-02-26T05:38:49.984Z,78.72
2023-02-26T05:39:49.975Z,78.72
2023-02-26T05:40:49.955Z,78.69
2023-02-26T05:41:49.951Z,78.79
2023-02-26T05:42:49.946Z,78.58
2023-02-26T05:43:49.927Z,78.62
2023-02-26T05:44:49.931Z,78.62
2023-02-26T05:45:49.909Z,78.52
2023-02-26T05:46:51.965Z,78.62
2023-02-26T05:47:49.887Z,78.72
2023-02-26T05:48:49.899Z,78.83
2023-02-26T05:49:49.859Z,78.83
2023-02-26T05:50:49.863Z,78.83
2023-02-26T05:51:49.831Z,78.83
2023-02-26T05:52:49.849Z,78.62
2023-02-26T05:53:49.812Z,78.62
2023-02-26T05:54:49.803Z,78.72
2023-02-26T05:55:49.789Z,78.72
2023-02-26T05:56:49.788Z,78.41
2023-02-26T05:57:49.762Z,78.41
2023-02-26T05:58:49.770Z,78.31
2023-02-26T05:59:49.745Z,78.31
2023-02-26T06:00:49.740Z,78.20
2023-02-26T06:01:49.791Z,78.10
2023-02-26T06:02:49.757Z,78.10
2023-02-26T06:03:51.705Z,78.10
2023-02-26T06:04:49.690Z,78.10
2023-02-26T06:05:49.671Z,78.07
2023-02-26T06:06:49.672Z,78.07
2023-02-26T06:07:49.661Z,78.07
2023-02-26T06:08:49.661Z,77.96
2023-02-26T06:09:49.630Z,77.99
2023-02-26T06:10:49.619Z,77.99
2023-02-26T06:11:49.612Z,77.99
2023-02-26T06:12:49.600Z,77.96
2023-02-26T06:13:49.587Z,77.96
2023-02-26T06:14:49.577Z,77.96
2023-02-26T06:15:49.572Z,77.96
2023-02-26T06:16:49.549Z,77.85
2023-02-26T06:17:49.544Z,77.75
2023-02-26T06:18:49.522Z,77.75
2023-02-26T06:19:49.518Z,77.64
2023-02-26T06:20:51.506Z,77.47
2023-02-26T06:21:49.490Z,77.58
2023-02-26T06:22:49.476Z,77.78
2023-02-26T06:23:49.482Z,77.85
2023-02-26T06:24:49.482Z,77.85
2023-02-26T06:25:49.458Z,77.64
2023-02-26T06:26:49.448Z,77.33
2023-02-26T06:27:49.433Z,77.33
2023-02-26T06:28:49.407Z,77.44
2023-02-26T06:29:49.401Z,77.54
2023-02-26T06:30:49.422Z,77.64
2023-02-26T06:31:49.586Z,77.75
2023-02-26T06:32:49.434Z,77.64
2023-02-26T06:33:49.363Z,77.40
2023-02-26T06:34:49.364Z,77.13
2023-02-26T06:35:49.342Z,77.23
2023-02-26T06:36:49.339Z,77.44
2023-02-26T06:37:49.333Z,77.44
2023-02-26T06:38:49.308Z,77.30
2023-02-26T06:39:49.306Z,77.30
2023-02-26T06:40:49.311Z,77.30
2023-02-26T06:41:49.269Z,77.09
2023-02-26T06:42:49.261Z,76.98
2023-02-26T06:43:49.256Z,76.84
2023-02-26T06:44:49.245Z,76.64
2023-02-26T06:45:49.255Z,76.43
2023-02-26T06:46:49.224Z,76.22
2023-02-26T06:47:49.241Z,76.08
2023-02-26T06:48:49.246Z,75.67
2023-02-26T06:49:49.197Z,75.46
2023-02-26T06:50:49.186Z,75.46
2023-02-26T06:51:49.167Z,75.25
2023-02-26T06:52:49.152Z,75.25
2023-02-26T06:53:49.155Z,75.25
2023-02-26T06:54:49.135Z,75.01
2023-02-26T06:55:49.123Z,74.80
2023-02-26T06:56:49.135Z,74.49
2023-02-26T06:57:49.095Z,74.49
2023-02-26T06:58:49.088Z,74.25
2023-02-26T06:59:49.134Z,74.15
2023-02-26T07:00:49.119Z,73.80
2023-02-26T07:01:49.056Z,73.56
2023-02-26T07:02:49.050Z,73.42
2023-02-26T07:03:49.035Z,72.42
2023-02-26T07:04:49.020Z,71.04
2023-02-26T07:05:49.028Z,69.84
2023-02-26T07:06:49.002Z,69.18
2023-02-26T07:07:48.988Z,68.05
2023-02-26T07:08:48.996Z,67.77
2023-02-26T07:09:48.967Z,67.56
2023-02-26T07:10:48.958Z,67.70
2023-02-26T07:11:48.960Z,67.83
2023-02-26T07:12:48.953Z,68.59
2023-02-26T07:13:48.915Z,69.24
2023-02-26T07:14:48.952Z,69.24
2023-02-26T07:15:48.902Z,69.14
2023-02-26T07:16:49.001Z,69.24
2023-02-26T07:17:48.871Z,69.34
2023-02-26T07:18:48.885Z,69.48
2023-02-26T07:19:48.887Z,69.68
2023-02-26T07:20:48.837Z,69.79
2023-02-26T07:21:48.836Z,69.89
2023-02-26T07:22:48.814Z,70.14
2023-02-26T07:23:48.812Z,70.34
2023-02-26T07:24:48.809Z,70.55
2023-02-26T07:25:48.791Z,70.52
2023-02-26T07:26:48.778Z,70.31
2023-02-26T07:27:48.797Z,70.20
2023-02-26T07:28:48.805Z,70.38
2023-02-26T07:29:48.749Z,70.07
2023-02-26T07:30:48.817Z,69.79
2023-02-26T07:31:48.830Z,69.86
2023-02-26T07:32:48.714Z,69.65
2023-02-26T07:33:48.701Z,69.34
2023-02-26T07:34:48.701Z,69.31
2023-02-26T07:35:48.681Z,69.25
2023-02-26T07:36:48.672Z,68.01
2023-02-26T07:37:48.656Z,65.99
2023-02-26T07:38:48.646Z,64.77
2023-02-26T07:39:48.638Z,63.36
2023-02-26T07:40:48.633Z,61.76
2023-02-26T07:41:48.613Z,60.60
2023-02-26T07:42:48.598Z,60.08
2023-02-26T07:43:48.589Z,60.11
2023-02-26T07:44:48.593Z,60.66
2023-02-26T07:45:48.600Z,60.66
2023-02-26T07:46:48.556Z,60.71
2023-02-26T07:47:48.541Z,61.46
2023-02-26T07:48:48.531Z,61.90
2023-02-26T07:49:48.519Z,62.35
2023-02-26T07:50:48.512Z,63.00
2023-02-26T07:51:48.497Z,63.79
2023-02-26T07:52:48.489Z,63.86
2023-02-26T07:53:48.472Z,62.88
2023-02-26T07:54:48.454Z,61.82
2023-02-26T07:55:48.451Z,61.74
2023-02-26T07:56:48.444Z,61.41
2023-02-26T07:57:48.432Z,60.97
2023-02-26T07:58:48.410Z,60.80
2023-02-26T07:59:48.401Z,60.36
2023-02-26T08:00:48.413Z,60.13
2023-02-26T08:01:48.411Z,59.21
2023-02-26T08:02:48.368Z,58.80
2023-02-26T08:03:48.499Z,58.67
2023-02-26T08:04:48.346Z,58.82
2023-02-26T08:05:48.358Z,57.40
2023-02-26T08:06:48.327Z,56.22
2023-02-26T08:07:48.318Z,55.23
2023-02-26T08:08:48.297Z,52.56
2023-02-26T08:09:48.294Z,52.92
2023-02-26T08:10:48.288Z,53.79
2023-02-26T08:11:48.270Z,54.82
2023-02-26T08:12:48.274Z,55.07
2023-02-26T08:13:48.248Z,54.33
2023-02-26T08:14:48.234Z,52.97
2023-02-26T08:15:48.300Z,52.75
2023-02-26T08:16:48.244Z,52.05
2023-02-26T08:17:48.199Z,53.00
2023-02-26T08:18:48.191Z,53.87
2023-02-26T08:19:48.182Z,52.13
2023-02-26T08:20:48.171Z,52.29
2023-02-26T08:21:50.040Z,51.01
2023-02-26T08:22:48.155Z,50.43
2023-02-26T08:23:48.136Z,48.88
2023-02-26T08:24:48.130Z,47.84
2023-02-26T08:25:48.117Z,47.92
2023-02-26T08:26:48.093Z,47.47
2023-02-26T08:27:48.099Z,46.33
2023-02-26T08:28:48.083Z,46.31
2023-02-26T08:29:48.062Z,46.06
2023-02-26T08:30:48.120Z,45.53
2023-02-26T08:31:48.172Z,45.11
2023-02-26T08:32:48.135Z,44.36
2023-02-26T08:33:48.032Z,43.32
2023-02-26T08:34:48.014Z,43.22
2023-02-26T08:35:47.994Z,42.61
2023-02-26T08:36:47.993Z,43.04
2023-02-26T08:37:47.973Z,43.28
2023-02-26T08:38:47.958Z,44.39
2023-02-26T08:39:47.953Z,43.67
2023-02-26T08:40:47.937Z,43.76
2023-02-26T08:41:47.944Z,43.64
2023-02-26T08:42:48.075Z,43.62
2023-02-26T08:43:47.915Z,42.37
2023-02-26T08:44:47.934Z,42.07
2023-02-26T08:45:47.896Z,41.64
2023-02-26T08:46:47.927Z,42.01
2023-02-26T08:47:56.578Z,42.84
2023-02-26T08:48:47.881Z,43.30
2023-02-26T08:49:47.850Z,44.20
2023-02-26T08:50:47.851Z,45.89
2023-02-26T08:51:47.836Z,45.89
2023-02-26T08:52:47.818Z,47.16
2023-02-26T08:53:47.818Z,45.19
2023-02-26T08:54:47.791Z,44.92
2023-02-26T08:55:47.771Z,43.79
2023-02-26T08:56:47.768Z,43.76
2023-02-26T08:57:47.759Z,43.12
2023-02-26T08:58:47.754Z,44.60
2023-02-26T08:59:47.732Z,45.59
2023-02-26T09:00:47.719Z,45.55
2023-02-26T09:01:47.760Z,44.17
2023-02-26T09:02:47.847Z,42.51
2023-02-26T09:03:47.690Z,41.76
2023-02-26T09:04:47.710Z,41.30
2023-02-26T09:05:47.667Z,40.00
2023-02-26T09:06:47.655Z,40.91
2023-02-26T09:07:47.650Z,40.47
2023-02-26T09:08:47.630Z,39.77
2023-02-26T09:09:47.626Z,40.25
2023-02-26T09:10:47.615Z,39.42
2023-02-26T09:11:47.615Z,39.28
2023-02-26T09:12:47.596Z,39.70
2023-02-26T09:13:47.578Z,40.82
2023-02-26T09:14:47.584Z,39.68
2023-02-26T09:15:47.557Z,40.29
2023-02-26T09:16:49.975Z,40.00
2023-02-26T09:17:47.533Z,40.53
2023-02-26T09:18:47.525Z,40.67
2023-02-26T09:19:47.504Z,40.99
2023-02-26T09:20:47.526Z,41.92
2023-02-26T09:21:47.493Z,41.40
2023-02-26T09:22:47.472Z,40.58
2023-02-26T09:23:47.470Z,42.65
2023-02-26T09:24:47.507Z,42.41
2023-02-26T09:25:47.444Z,41.87
2023-02-26T09:26:47.438Z,39.80
2023-02-26T09:27:47.422Z,39.66
2023-02-26T09:28:47.411Z,39.86
2023-02-26T09:29:47.411Z,39.75
2023-02-26T09:30:47.409Z,38.70
2023-02-26T09:31:47.494Z,39.33
2023-02-26T09:32:47.459Z,38.38
2023-02-26T09:33:47.354Z,37.86
2023-02-26T09:34:47.368Z,37.54
2023-02-26T09:35:47.333Z,36.93
2023-02-26T09:36:47.341Z,38.00
2023-02-26T09:37:47.307Z,37.78
2023-02-26T09:38:47.300Z,37.79
2023-02-26T09:39:47.284Z,37.69
2023-02-26T09:40:47.277Z,37.49
2023-02-26T09:41:47.272Z,38.51
2023-02-26T09:42:47.259Z,37.76
2023-02-26T09:43:47.238Z,37.30
2023-02-26T09:44:47.240Z,36.08
2023-02-26T09:45:47.257Z,36.43
2023-02-26T09:46:47.230Z,37.46
2023-02-26T09:47:47.202Z,36.95
2023-02-26T09:48:47.184Z,36.97
2023-02-26T09:49:47.169Z,37.89
2023-02-26T09:50:47.164Z,37.76
2023-02-26T09:51:49.785Z,36.43
2023-02-26T09:52:47.164Z,37.37
2023-02-26T09:53:47.138Z,37.91
2023-02-26T09:54:47.142Z,37.71
2023-02-26T09:55:47.117Z,38.31
2023-02-26T09:56:47.110Z,37.54
2023-02-26T09:57:47.090Z,39.09
2023-02-26T09:58:47.080Z,38.78
2023-02-26T09:59:47.071Z,38.96
2023-02-26T10:00:47.064Z,38.07
2023-02-26T10:01:47.056Z,39.36
2023-02-26T10:02:47.028Z,38.13
2023-02-26T10:03:47.091Z,38.42
2023-02-26T10:04:47.016Z,37.61
2023-02-26T10:05:47.003Z,37.31
2023-02-26T10:06:47.000Z,36.66
2023-02-26T10:07:46.975Z,37.10
2023-02-26T10:08:46.990Z,37.75
2023-02-26T10:09:46.961Z,37.80
2023-02-26T10:10:46.948Z,37.93
2023-02-26T10:11:46.948Z,39.39
2023-02-26T10:12:46.931Z,39.94
2023-02-26T10:13:57.163Z,40.03
2023-02-26T10:14:46.908Z,40.17
2023-02-26T10:15:46.888Z,40.88
2023-02-26T10:16:47.000Z,41.13
2023-02-26T10:17:46.974Z,40.06
2023-02-26T10:18:46.852Z,39.05
2023-02-26T10:19:46.850Z,39.30
2023-02-26T10:20:46.868Z,37.83
2023-02-26T10:21:46.828Z,36.97
2023-02-26T10:22:48.599Z,35.86
2023-02-26T10:23:46.799Z,36.06
2023-02-26T10:24:46.822Z,36.08
2023-02-26T10:25:46.782Z,35.56
2023-02-26T10:26:46.770Z,35.96
2023-02-26T10:27:46.759Z,35.12
2023-02-26T10:28:48.649Z,34.92
2023-02-26T10:29:46.729Z,34.52
2023-02-26T10:30:46.764Z,35.96
2023-02-26T10:31:46.870Z,35.85
2023-02-26T10:32:46.859Z,34.82
2023-02-26T10:33:46.695Z,35.68
2023-02-26T10:34:46.671Z,35.07
2023-02-26T10:35:46.669Z,35.90
2023-02-26T10:36:46.674Z,35.79
2023-02-26T10:37:46.654Z,35.27
2023-02-26T10:38:46.649Z,35.02
2023-02-26T10:39:46.615Z,34.58
2023-02-26T10:40:46.653Z,33.65
2023-02-26T10:41:46.597Z,33.45
2023-02-26T10:42:46.585Z,33.65
2023-02-26T10:43:46.572Z,33.05
2023-02-26T10:44:46.574Z,33.25
2023-02-26T10:45:46.585Z,33.15
2023-02-26T10:46:46.545Z,32.10
2023-02-26T10:47:46.531Z,32.31
2023-02-26T10:48:46.517Z,31.87
2023-02-26T10:49:46.511Z,33.44
2023-02-26T10:50:46.499Z,34.61
2023-02-26T10:51:46.485Z,35.86
2023-02-26T10:52:46.483Z,34.99
2023-02-26T10:53:46.454Z,33.93
2023-02-26T10:54:46.474Z,33.36
2023-02-26T10:55:46.446Z,32.51
2023-02-26T10:56:46.463Z,31.56
2023-02-26T10:57:46.420Z,32.83
2023-02-26T10:58:46.407Z,33.67
2023-02-26T10:59:46.398Z,35.54
2023-02-26T11:00:46.394Z,35.26
2023-02-26T11:01:46.467Z,34.95
2023-02-26T11:02:46.462Z,35.22
2023-02-26T11:03:46.354Z,34.79
2023-02-26T11:04:48.702Z,34.89
2023-02-26T11:05:46.331Z,34.94
2023-02-26T11:06:46.315Z,36.13
2023-02-26T11:07:46.317Z,34.13
2023-02-26T11:08:46.319Z,35.68
2023-02-26T11:09:46.291Z,36.30
2023-02-26T11:10:46.280Z,35.69
2023-02-26T11:11:46.266Z,35.27
2023-02-26T11:12:46.283Z,37.86
2023-02-26T11:13:46.248Z,37.17
2023-02-26T11:14:46.236Z,37.67
2023-02-26T11:15:46.311Z,37.86
2023-02-26T11:16:46.214Z,38.26
2023-02-26T11:17:46.200Z,37.87
2023-02-26T11:18:46.192Z,38.54
2023-02-26T11:19:46.185Z,39.88
2023-02-26T11:20:46.172Z,40.29
2023-02-26T11:21:46.160Z,40.19
2023-02-26T11:22:46.146Z,40.20
2023-02-26T11:23:46.128Z,40.53
2023-02-26T11:24:46.126Z,41.43
2023-02-26T11:25:46.108Z,40.92
2023-02-26T11:26:46.102Z,40.69
2023-02-26T11:27:46.096Z,40.53
2023-02-26T11:28:46.105Z,39.56
2023-02-26T11:29:46.072Z,37.18
2023-02-26T11:30:46.195Z,36.10
2023-02-26T11:31:46.172Z,35.34
2023-02-26T11:32:46.106Z,35.12
2023-02-26T11:33:46.030Z,33.79
2023-02-26T11:34:46.008Z,33.34
2023-02-26T11:35:46.004Z,35.22
2023-02-26T11:36:45.985Z,36.51
2023-02-26T11:37:45.976Z,37.78
2023-02-26T11:38:45.969Z,38.93
2023-02-26T11:39:45.952Z,40.69
2023-02-26T11:40:45.950Z,41.57
2023-02-26T11:41:45.931Z,41.79
2023-02-26T11:42:45.925Z,42.52
2023-02-26T11:43:45.920Z,43.28
2023-02-26T11:44:45.931Z,43.71
2023-02-26T11:45:45.887Z,44.12
2023-02-26T11:46:45.878Z,43.81
2023-02-26T11:47:45.869Z,44.53
2023-02-26T11:48:45.864Z,43.21
2023-02-26T11:49:45.843Z,43.15
2023-02-26T11:50:45.835Z,44.32
2023-02-26T11:51:45.818Z,45.16
2023-02-26T11:52:45.805Z,45.86
2023-02-26T11:53:45.804Z,45.71
2023-02-26T11:54:45.788Z,43.79
2023-02-26T11:55:45.780Z,43.42
2023-02-26T11:56:45.786Z,41.63
2023-02-26T11:57:45.756Z,40.12
2023-02-26T11:58:45.746Z,40.33
2023-02-26T11:59:45.727Z,39.53
2023-02-26T12:00:45.743Z,40.79
2023-02-26T12:01:45.705Z,41.04
2023-02-26T12:02:45.831Z,42.07
2023-02-26T12:03:45.715Z,41.99
2023-02-26T12:04:45.680Z,43.62
2023-02-26T12:05:45.671Z,43.42
2023-02-26T12:06:45.645Z,42.60
2023-02-26T12:07:45.644Z,42.91
2023-02-26T12:08:45.632Z,42.62
2023-02-26T12:09:45.627Z,43.65
2023-02-26T12:10:45.601Z,43.65
2023-02-26T12:11:45.594Z,43.67
2023-02-26T12:12:45.593Z,44.28
2023-02-26T12:13:45.574Z,44.18
2023-02-26T12:14:45.561Z,43.50
2023-02-26T12:15:45.574Z,42.60
2023-02-26T12:16:45.561Z,41.63
2023-02-26T12:17:45.529Z,40.25
2023-02-26T12:18:45.512Z,39.20
2023-02-26T12:19:45.512Z,37.90
2023-02-26T12:20:45.545Z,35.86
2023-02-26T12:21:45.537Z,36.47
2023-02-26T12:22:45.520Z,36.25
2023-02-26T12:23:45.508Z,35.65
2023-02-26T12:24:47.626Z,36.38
2023-02-26T12:25:45.456Z,37.10
2023-02-26T12:26:45.429Z,37.32
2023-02-26T12:27:45.468Z,36.91
2023-02-26T12:28:45.417Z,36.00
2023-02-26T12:29:45.396Z,37.01
2023-02-26T12:30:45.457Z,36.93
2023-02-26T12:31:45.543Z,36.42
2023-02-26T12:32:45.423Z,36.29
2023-02-26T12:33:45.348Z,36.49
2023-02-26T12:34:45.335Z,36.73
2023-02-26T12:35:45.333Z,37.06
2023-02-26T12:36:49.754Z,37.40
2023-02-26T12:37:45.374Z,38.56
2023-02-26T12:38:45.302Z,39.02
2023-02-26T12:39:45.286Z,40.38
2023-02-26T12:40:45.275Z,41.44
2023-02-26T12:41:45.315Z,42.19
2023-02-26T12:42:45.320Z,42.73
2023-02-26T12:43:45.312Z,43.26
2023-02-26T12:44:45.233Z,43.21
2023-02-26T12:45:45.283Z,41.81
2023-02-26T12:46:45.336Z,41.24
2023-02-26T12:47:45.195Z,40.49
2023-02-26T12:48:45.214Z,39.11
2023-02-26T12:49:45.172Z,40.02
2023-02-26T12:50:45.172Z,40.33
2023-02-26T12:51:45.149Z,39.92
2023-02-26T12:52:45.197Z,39.33